METAR AND TAF INFORMATION
METAR FOR UAOO
ADDS - METARS form results

(0411 UTC 26 August 2019)
Data provider http://aviationweather.gov/metar/data/
 
METAR text: UAOO 260400Z 03004MPS CAVOK 25/05 Q1010 R05/CLRD70 NOSIG RMK QFE746/0995
Conditions at: UAOO (KZYL-ORDA , KZ) observed 0400 UTC 26 August 2019
Temperature: 25.0°C (77°F)
Dewpoint: 5.0°C (41°F) [RH = 28%]
Pressure (altimeter): 29.82 inches Hg (1010.0 mb)
Winds: from the NNE (30 degrees) at 9 MPH (8 knots; 4.1 m/s)
Visibility: 6 or more miles (10+ km)
Ceiling: ceiling and visibility are OK
Clouds: unknown
Weather: no significant weather observed at this time

METAR text: UAOO 260330Z 04003MPS CAVOK 24/06 Q1010 R05/CLRD70 NOSIG RMK QFE746/0995
Conditions at: UAOO (KZYL-ORDA , KZ) observed 0330 UTC 26 August 2019
Temperature: 24.0°C (75°F)
Dewpoint: 6.0°C (43°F) [RH = 31%]
Pressure (altimeter): 29.82 inches Hg (1010.0 mb)
Winds: from the NE (40 degrees) at 7 MPH (6 knots; 3.1 m/s)
Visibility: 6 or more miles (10+ km)
Ceiling: ceiling and visibility are OK
Clouds: unknown
Weather: no significant weather observed at this time

Forecast for: UAOO (KZYL-ORDA , KZ)
Text: TAF UAOO 260200Z 2603/2612 03005MPS CAVOK
Forecast period: 0300 to 1200 UTC 26 August 2019
Forecast type: FROM: standard forecast or significant change
Winds: from the NNE (30 degrees) at 12 MPH (10 knots; 5.1 m/s)
Visibility: 6 or more miles 10+ km)
Ceiling: unknown
Clouds: missing
Weather: NSW  (no significant weather)

 AIRPORT MAP

 RUNWAY INFORMATION

 AIRPORT FREQUENCIES

 AIRPORT NEAR NAVIGATION AIDS



2018 Air Astana Virtual Airline